createdAt,value
2022-12-16T00:02:28.763Z,64945.75
2022-12-16T00:07:34.590Z,64980.13
2022-12-16T00:12:38.427Z,64983.28
2022-12-16T00:17:42.312Z,64963.88
2022-12-16T00:22:47.657Z,64963.13
2022-12-16T00:27:54.878Z,64970.13
2022-12-16T00:33:01.332Z,65018.88
2022-12-16T00:38:06.690Z,65086.22
2022-12-16T00:43:12.099Z,64994.44
2022-12-16T00:48:16.490Z,65014.19
2022-12-16T00:53:21.783Z,64991.25
2022-12-16T00:58:25.728Z,64987.53
2022-12-16T01:03:29.945Z,64993.91
2022-12-16T01:08:35.436Z,64987.66
2022-12-16T01:13:39.315Z,64989.25
2022-12-16T01:18:43.376Z,65016.72
2022-12-16T01:23:50.050Z,65029.50
2022-12-16T01:28:55.114Z,64998.81
2022-12-16T01:33:59.309Z,64995.50
2022-12-16T01:39:05.425Z,65024.06
2022-12-16T01:44:15.570Z,65101.41
2022-12-16T01:49:25.333Z,65088.44
2022-12-16T01:54:37.044Z,65086.31
2022-12-16T01:59:43.913Z,65093.31
2022-12-16T02:05:01.682Z,65106.72
2022-12-16T02:10:08.183Z,65117.56
2022-12-16T02:15:28.884Z,65160.28
2022-12-16T02:21:03.679Z,65123.72
2022-12-16T02:26:33.731Z,65139.44
2022-12-16T02:31:47.151Z,65153.38
2022-12-16T02:37:05.131Z,65101.28
2022-12-16T02:42:17.798Z,65094.81
2022-12-16T02:47:23.096Z,65094.06
2022-12-16T02:52:29.060Z,65092.91
2022-12-16T02:58:11.143Z,65125.63
2022-12-16T03:03:25.464Z,65130.00
2022-12-16T03:08:34.120Z,65098.84
2022-12-16T03:13:42.416Z,65097.16
2022-12-16T03:18:52.572Z,65079.94
2022-12-16T03:24:02.147Z,65107.56
2022-12-16T03:29:10.973Z,65129.88
2022-12-16T03:34:21.219Z,65115.00
2022-12-16T03:39:27.228Z,65099.06
2022-12-16T03:44:32.303Z,65132.13
2022-12-16T03:49:38.297Z,65145.81
2022-12-16T03:54:42.227Z,65126.78
2022-12-16T03:59:46.224Z,65144.88
2022-12-16T04:04:51.603Z,65168.69
2022-12-16T04:09:55.435Z,65104.56
2022-12-16T04:15:17.020Z,65128.06
2022-12-16T04:20:46.708Z,65112.44
2022-12-16T04:25:51.529Z,65113.50
2022-12-16T04:30:55.795Z,65134.75
2022-12-16T04:36:18.815Z,65120.72
2022-12-16T04:41:40.153Z,65181.13
2022-12-16T04:47:02.026Z,65134.22
2022-12-16T04:52:24.721Z,65132.53
2022-12-16T04:57:51.277Z,65166.13
2022-12-16T05:03:12.537Z,65132.31
2022-12-16T05:08:35.617Z,65150.06
2022-12-16T05:13:57.064Z,65162.84
2022-12-16T05:19:18.343Z,65154.34
2022-12-16T05:24:41.404Z,65185.16
2022-12-16T05:30:02.895Z,65191.53
2022-12-16T05:35:25.102Z,65161.44
2022-12-16T05:40:47.808Z,65178.78
2022-12-16T05:46:09.295Z,65183.66
2022-12-16T05:51:30.820Z,65217.69
2022-12-16T05:56:53.672Z,65195.78
2022-12-16T06:02:15.404Z,65224.72
2022-12-16T06:07:36.900Z,65241.63
2022-12-16T06:12:59.568Z,65221.53
2022-12-16T06:18:20.779Z,65204.50
2022-12-16T06:23:42.089Z,65183.25
2022-12-16T06:29:04.606Z,65202.16
2022-12-16T06:34:25.583Z,65194.63
2022-12-16T06:39:51.416Z,65199.50
2022-12-16T06:45:15.521Z,65164.09
2022-12-16T06:50:39.440Z,65167.63
2022-12-16T06:56:02.529Z,65182.19
2022-12-16T07:01:25.293Z,65225.03
2022-12-16T07:06:47.066Z,65228.88
2022-12-16T07:12:08.147Z,65240.47
2022-12-16T07:17:30.891Z,65285.78
2022-12-16T07:22:59.974Z,65259.19
2022-12-16T07:28:26.565Z,65247.59
2022-12-16T07:33:49.830Z,65266.00
2022-12-16T07:39:20.307Z,65222.38
2022-12-16T07:44:41.558Z,65218.13
2022-12-16T07:50:04.570Z,65240.56
2022-12-16T07:55:26.988Z,65247.06
2022-12-16T08:00:48.181Z,65310.91
2022-12-16T08:06:10.973Z,65271.41
2022-12-16T08:11:32.639Z,65338.56
2022-12-16T08:16:53.927Z,65295.16
2022-12-16T08:22:19.286Z,65303.34
2022-12-16T08:27:40.693Z,65302.19
2022-12-16T08:33:10.718Z,65282.06
2022-12-16T08:38:37.855Z,65279.31
2022-12-16T08:43:59.692Z,65309.63
2022-12-16T08:49:21.750Z,65259.63
2022-12-16T08:54:44.368Z,65256.09
2022-12-16T09:00:06.163Z,65296.53
2022-12-16T09:05:28.034Z,65267.69
2022-12-16T09:10:50.614Z,65261.31
2022-12-16T09:16:17.590Z,65308.13
2022-12-16T09:21:40.630Z,65253.66
2022-12-16T09:27:03.438Z,65306.53
2022-12-16T09:32:39.770Z,65319.84
2022-12-16T09:38:04.983Z,65278.13
2022-12-16T09:43:45.625Z,65264.50
2022-12-16T09:49:14.897Z,65280.25
2022-12-16T09:54:38.766Z,65293.88
2022-12-16T10:00:12.591Z,65286.31
2022-12-16T10:05:41.682Z,65332.63
2022-12-16T10:11:13.365Z,65408.78
2022-12-16T10:16:45.548Z,65473.66
2022-12-16T10:22:14.884Z,65354.88
2022-12-16T10:27:42.010Z,65289.50
2022-12-16T10:33:06.989Z,65309.63
2022-12-16T10:38:39.567Z,65350.72
2022-12-16T10:44:06.530Z,65372.03
2022-12-16T10:49:33.628Z,65414.53
2022-12-16T10:55:01.334Z,65390.13
2022-12-16T11:00:31.366Z,65376.81
2022-12-16T11:05:54.322Z,65362.34
2022-12-16T11:11:31.163Z,65384.69
2022-12-16T11:17:07.452Z,65457.78
2022-12-16T11:22:45.349Z,65412.84
2022-12-16T11:28:07.149Z,65449.34
2022-12-16T11:33:42.518Z,65425.38
2022-12-16T11:39:08.076Z,65383.31
2022-12-16T11:44:37.455Z,65400.69
2022-12-16T11:49:59.150Z,65382.03
2022-12-16T11:56:03.724Z,65384.69
2022-12-16T12:01:21.710Z,65377.34
2022-12-16T12:06:51.240Z,65408.66
2022-12-16T12:12:33.256Z,65511.63
2022-12-16T12:18:03.242Z,65458.41
2022-12-16T12:23:26.701Z,65525.81
2022-12-16T12:29:05.753Z,65484.97
2022-12-16T12:34:37.646Z,65443.94
2022-12-16T12:40:10.510Z,65484.97
2022-12-16T12:46:02.803Z,65548.31
2022-12-16T12:51:30.718Z,65496.16
2022-12-16T12:57:06.089Z,65432.75
2022-12-16T13:02:34.684Z,65446.16
2022-12-16T13:07:56.238Z,65482.94
2022-12-16T13:13:47.482Z,65538.91
2022-12-16T13:19:53.717Z,65506.72
2022-12-16T13:25:29.351Z,65444.47
2022-12-16T13:30:52.693Z,65544.66
2022-12-16T13:36:18.682Z,65491.03
2022-12-16T13:42:16.362Z,65426.97
2022-12-16T13:47:51.200Z,65424.03
2022-12-16T13:53:18.938Z,65520.16
2022-12-16T13:58:53.902Z,65579.69
2022-12-16T14:04:19.036Z,65537.09
2022-12-16T14:09:51.098Z,65479.63
2022-12-16T14:15:19.818Z,65505.31
2022-12-16T14:20:48.616Z,65482.72
2022-12-16T14:26:16.182Z,65561.22
2022-12-16T14:31:41.503Z,65444.34
2022-12-16T14:37:04.171Z,65379.91
2022-12-16T14:42:38.306Z,65394.81
2022-12-16T14:48:00.104Z,65368.72
2022-12-16T14:53:37.703Z,65441.78
2022-12-16T14:59:00.900Z,65463.22
2022-12-16T15:04:27.635Z,65465.34
2022-12-16T15:09:53.299Z,65496.06
2022-12-16T15:15:20.073Z,65308.66
2022-12-16T15:20:45.280Z,65373.63
2022-12-16T15:26:14.619Z,65311.44
2022-12-16T15:31:44.241Z,65324.66
2022-12-16T15:37:03.391Z,65292.69
2022-12-16T15:42:36.792Z,65354.16
2022-12-16T15:47:59.453Z,65304.94
2022-12-16T15:53:35.058Z,65314.09
2022-12-16T15:58:56.929Z,65293.88
2022-12-16T16:04:20.203Z,65247.38
2022-12-16T16:09:46.036Z,65276.31
2022-12-16T16:15:07.569Z,65261.44
2022-12-16T16:20:33.878Z,65302.19
2022-12-16T16:26:00.526Z,65306.44
2022-12-16T16:31:28.498Z,65234.72
2022-12-16T16:36:51.828Z,65292.16
2022-12-16T16:42:14.194Z,65285.56
2022-12-16T16:47:36.751Z,65322.50
2022-12-16T16:52:59.380Z,65334.75
2022-12-16T16:58:25.277Z,65291.75
2022-12-16T17:03:58.614Z,65283.66
2022-12-16T17:09:22.006Z,65204.84
2022-12-16T17:14:43.762Z,65255.56
2022-12-16T17:20:05.648Z,65200.78
2022-12-16T17:25:29.125Z,65220.25
2022-12-16T17:30:50.692Z,65199.59
2022-12-16T17:36:13.059Z,65151.13
2022-12-16T17:41:35.837Z,65221.31
2022-12-16T17:46:57.744Z,65157.94
2022-12-16T17:52:19.760Z,65176.31
2022-12-16T17:57:42.705Z,65242.19
2022-12-16T18:03:04.640Z,65187.28
2022-12-16T18:08:26.995Z,65171.84
2022-12-16T18:13:49.933Z,65152.94
2022-12-16T18:19:11.986Z,65258.88
2022-12-16T18:24:33.885Z,65181.56
2022-12-16T18:29:58.845Z,65188.56
2022-12-16T18:35:21.120Z,65223.44
2022-12-16T18:40:42.911Z,65222.91
2022-12-16T18:46:11.355Z,65189.41
2022-12-16T18:51:33.078Z,65288.34
2022-12-16T18:56:54.949Z,65275.25
2022-12-16T19:02:17.999Z,65216.72
2022-12-16T19:07:39.912Z,65163.47
2022-12-16T19:13:01.085Z,65318.16
2022-12-16T19:18:23.812Z,65175.16
2022-12-16T19:23:45.708Z,65139.97
2022-12-16T19:29:07.450Z,65174.19
2022-12-16T19:34:30.912Z,65172.59
2022-12-16T19:39:53.842Z,65276.44
2022-12-16T19:45:15.388Z,65272.59
2022-12-16T19:50:46.908Z,65317.63
2022-12-16T19:56:13.799Z,65307.28
2022-12-16T20:01:35.496Z,65356.59
2022-12-16T20:06:58.277Z,65310.25
2022-12-16T20:12:19.634Z,65221.31
2022-12-16T20:17:41.331Z,65269.28
2022-12-16T20:23:07.356Z,65261.75
2022-12-16T20:28:36.211Z,65169.22
2022-12-16T20:34:05.159Z,65241.53
2022-12-16T20:39:29.696Z,65278.34
2022-12-16T20:44:51.551Z,65223.44
2022-12-16T20:50:13.636Z,65245.25
2022-12-16T20:55:50.661Z,65236.66
2022-12-16T21:01:20.873Z,65256.00
2022-12-16T21:06:42.768Z,65187.38
2022-12-16T21:12:05.685Z,65249.72
2022-12-16T21:17:27.310Z,65304.84
2022-12-16T21:22:49.004Z,65271.53
2022-12-16T21:28:15.349Z,65300.25
2022-12-16T21:33:38.712Z,65306.53
2022-12-16T21:39:00.590Z,65369.25
2022-12-16T21:44:28.027Z,65306.13
2022-12-16T21:49:56.090Z,65229.72
2022-12-16T21:55:28.623Z,65246.94
2022-12-16T22:01:13.023Z,65359.25
2022-12-16T22:06:49.325Z,65233.44
2022-12-16T22:12:11.317Z,65231.94
2022-12-16T22:17:34.221Z,65224.50
2022-12-16T22:22:56.249Z,65279.41
2022-12-16T22:28:19.223Z,65213.44
2022-12-16T22:33:42.295Z,65233.97
2022-12-16T22:39:04.137Z,65270.47
2022-12-16T22:44:26.752Z,65327.09
2022-12-16T22:49:49.574Z,65293.03
2022-12-16T22:55:11.353Z,65135.63
2022-12-16T23:00:34.177Z,65054.66
2022-12-16T23:05:57.003Z,65054.44
2022-12-16T23:11:18.717Z,65017.91
2022-12-16T23:16:40.293Z,65033.41
2022-12-16T23:22:03.294Z,65076.66
2022-12-16T23:27:25.014Z,65035.31
2022-12-16T23:32:49.739Z,65000.72
2022-12-16T23:38:18.549Z,65006.88
2022-12-16T23:43:40.599Z,65061.44
2022-12-16T23:49:02.530Z,65090.56
2022-12-16T23:54:25.330Z,65038.94
2022-12-16T23:59:46.905Z,65019.41
